This is the latest recevied weather packets stored in our database for station/object OH2HCY. If no packets are shown the sender has not sent any weather packets the latest 10 day(s).
| Time | Temp. | Humidity | Pressure | Rain* | Wind** | Luminosity | Snow |
|---|---|---|---|---|---|---|---|
| 1777576127 | 12.22° C | 63% | 1016.5 hPa | - | - | - | - |
| 1777575600 | 12.22° C | 63% | 1016.4 hPa | - | - | - | - |
| 1777575089 | 12.22° C | 62% | 1016.3 hPa | - | - | - | - |
| 1777574560 | 12.78° C | 62% | 1016.2 hPa | - | - | - | - |
| 1777574040 | 12.78° C | 62% | 1016.2 hPa | - | - | - | - |
| 1777573449 | 12.78° C | 61% | 1016.1 hPa | - | - | - | - |
| 1777572952 | 12.78° C | 61% | 1016 hPa | - | - | - | - |
| 1777572398 | 12.78° C | 60% | 1015.9 hPa | - | - | - | - |
| 1777571885 | 12.78° C | 60% | 1015.8 hPa | - | - | - | - |
| 1777571325 | 12.78° C | 60% | 1015.8 hPa | - | - | - | - |
| 1777570800 | 12.78° C | 60% | 1015.7 hPa | - | - | - | - |
| 1777570244 | 12.78° C | 60% | 1015.7 hPa | - | - | - | - |
| 1777569720 | 12.78° C | 60% | 1015.7 hPa | - | - | - | - |
| 1777569200 | 12.78° C | 59% | 1015.6 hPa | - | - | - | - |
| 1777568679 | 13.33° C | 58% | 1015.5 hPa | - | - | - | - |
| 1777568135 | 13.89° C | 56% | 1015.3 hPa | - | - | - | - |
| 1777567565 | 13.89° C | 55% | 1015.1 hPa | - | - | - | - |
| 1777566980 | 15° C | 51% | 1014.7 hPa | - | - | - | - |
| 1777566429 | 15° C | 47% | 1014.5 hPa | - | - | - | - |
| 1777565915 | 15.56° C | 46% | 1014.2 hPa | - | - | - | - |
| 1777565360 | 16.11° C | 45% | 1014 hPa | - | - | - | - |
| 1777564869 | 15.56° C | 45% | 1014.1 hPa | - | - | - | - |
| 1777564355 | 15.56° C | 50% | 1014.5 hPa | - | - | - | - |
| 1777563780 | 14.44° C | 53% | 1014.9 hPa | - | - | - | - |
| 1777563269 | 13.89° C | 54% | 1015.2 hPa | - | - | - | - |
* Rain since midnight (hover to see other rain measurements)
** Current wind speed in m/s (hover to see current wind gust speed)